PWSweather.com
Personal Weather Stations
Station Observations
KYSHEP1
Lotus Point, Shepherdsville, KY 40165

Lotus PointShepherdsville, KY 40165

Lat: 37.933, Lon: -85.59

Elevation: 709

Station Type: WeatherFlow

http://bullittcountyky.us/weather/index.php

Latest ConditionsUpdated 4:30:02 AM EDT Monday, Aug 26, 2019
Currently Today's Max Today's Min Today's Average
Temperature 70.9°F21.6°C 72.5°F22.5°C 70.9°F21.6°C 71.9°F22.2°C
Dew Point 70.6°F21.4°C 72.2°F22.3°C 70.6°F21.4°C 71.6°F22.0°C
Winds Calm Calm 1.2 mph -1.9 kmh - - 0.2 mph 0.3 kmh
Wind Gusts 2.3 mph3.7 kmh 5.8 mph9.3 kmh - -
Humidity 99% 99% 99% 99%
Pressure 29.95 in1014.2 mb 29.98 in1015.2 mb 29.95 in1014.2 mb -
Hour Temp Dew Point Humidity Winds Wind Gusts Pressure Precip Precip Rate Daily Precip Total
04:30 AM 70.9°F21.6°C 70.6°F21.4°C 99% Calm Calm 2.3 mph3.7 kmh 29.95 in1014.2 mb - 0.00 in0.0 mm 0.00 in0.0 mm
04:25 AM 70.9°F21.6°C 70.6°F21.4°C 99% Calm Calm -- 29.95 in1014.2 mb - 0.00 in0.0 mm 0.00 in0.0 mm
04:20 AM 71.1°F21.7°C 70.8°F21.6°C 99% Calm Calm 2.3 mph3.7 kmh 29.95 in1014.2 mb - 0.00 in0.0 mm 0.00 in0.0 mm
04:15 AM 71.1°F21.7°C 70.8°F21.6°C 99% 1.2 mph N1.9 kmh N 3.5 mph5.6 kmh 29.95 in1014.2 mb - 0.00 in0.0 mm 0.00 in0.0 mm
04:10 AM 71.1°F21.7°C 70.8°F21.6°C 99% Calm Calm -- 29.95 in1014.2 mb - 0.00 in0.0 mm 0.00 in0.0 mm
04:00 AM 71.1°F21.7°C 70.8°F21.6°C 99% Calm Calm -- 29.95 in1014.2 mb - 0.00 in0.0 mm 0.00 in0.0 mm
03:55 AM 71.1°F21.7°C 70.8°F21.6°C 99% Calm Calm -- 29.95 in1014.2 mb - 0.00 in0.0 mm 0.00 in0.0 mm
03:50 AM 71.1°F21.7°C 70.8°F21.6°C 99% Calm Calm 3.5 mph5.6 kmh 29.95 in1014.2 mb - 0.00 in0.0 mm 0.00 in0.0 mm
03:45 AM 71.2°F21.8°C 70.9°F21.6°C 99% Calm Calm 1.2 mph1.9 kmh 29.95 in1014.2 mb - 0.00 in0.0 mm 0.00 in0.0 mm
03:40 AM 71.2°F21.8°C 70.9°F21.6°C 99% Calm Calm -- 29.95 in1014.2 mb - 0.00 in0.0 mm 0.00 in0.0 mm
03:35 AM 71.2°F21.8°C 70.9°F21.6°C 99% Calm Calm -- 29.95 in1014.2 mb - 0.00 in0.0 mm 0.00 in0.0 mm
03:30 AM 71.4°F21.9°C 71.1°F21.7°C 99% Calm Calm -- 29.95 in1014.2 mb - 0.00 in0.0 mm 0.00 in0.0 mm
03:25 AM 71.4°F21.9°C 71.1°F21.7°C 99% Calm Calm 2.3 mph3.7 kmh 29.95 in1014.2 mb - 0.00 in0.0 mm 0.00 in0.0 mm
03:20 AM 71.4°F21.9°C 71.1°F21.7°C 99% Calm Calm -- 29.95 in1014.2 mb - 0.00 in0.0 mm 0.00 in0.0 mm
03:15 AM 71.4°F21.9°C 71.1°F21.7°C 99% 1.2 mph N1.9 kmh N -- 29.95 in1014.2 mb - 0.00 in0.0 mm 0.00 in0.0 mm
03:10 AM 71.6°F22.0°C 71.3°F21.8°C 99% 1.2 mph N1.9 kmh N 5.8 mph9.3 kmh 29.95 in1014.2 mb - 0.00 in0.0 mm 0.00 in0.0 mm
03:00 AM 71.6°F22.0°C 71.3°F21.8°C 99% Calm Calm -- 29.95 in1014.2 mb - 0.00 in0.0 mm 0.00 in0.0 mm
02:55 AM 71.6°F22.0°C 71.3°F21.8°C 99% 1.2 mph N1.9 kmh N 2.3 mph3.7 kmh 29.95 in1014.2 mb - 0.00 in0.0 mm 0.00 in0.0 mm
02:50 AM 71.8°F22.1°C 71.5°F21.9°C 99% 1.2 mph N1.9 kmh N 3.5 mph5.6 kmh 29.95 in1014.2 mb - 0.00 in0.0 mm 0.00 in0.0 mm
02:45 AM 71.8°F22.1°C 71.5°F21.9°C 99% 1.2 mph N1.9 kmh N 3.5 mph5.6 kmh 29.95 in1014.2 mb - 0.00 in0.0 mm 0.00 in0.0 mm
02:40 AM 71.8°F22.1°C 71.5°F21.9°C 99% Calm Calm -- 29.95 in1014.2 mb - 0.00 in0.0 mm 0.00 in0.0 mm
02:35 AM 71.8°F22.1°C 71.5°F21.9°C 99% Calm Calm 2.3 mph3.7 kmh 29.95 in1014.2 mb - 0.00 in0.0 mm 0.00 in0.0 mm
02:30 AM 71.8°F22.1°C 71.5°F21.9°C 99% Calm Calm -- 29.95 in1014.2 mb - 0.00 in0.0 mm 0.00 in0.0 mm
02:25 AM 72.0°F22.2°C 71.7°F22.1°C 99% Calm Calm -- 29.95 in1014.2 mb - 0.00 in0.0 mm 0.00 in0.0 mm
02:20 AM 72.0°F22.2°C 71.7°F22.1°C 99% Calm Calm -- 29.96 in1014.6 mb - 0.00 in0.0 mm 0.00 in0.0 mm
02:15 AM 72.0°F22.2°C 71.7°F22.1°C 99% Calm Calm -- 29.96 in1014.6 mb - 0.00 in0.0 mm 0.00 in0.0 mm
02:10 AM 72.0°F22.2°C 71.7°F22.1°C 99% Calm Calm -- 29.96 in1014.6 mb - 0.00 in0.0 mm 0.00 in0.0 mm
02:00 AM 72.0°F22.2°C 71.7°F22.1°C 99% Calm Calm 3.5 mph5.6 kmh 29.96 in1014.6 mb - 0.00 in0.0 mm 0.00 in0.0 mm
01:55 AM 72.1°F22.3°C 71.8°F22.1°C 99% Calm Calm 2.3 mph3.7 kmh 29.96 in1014.6 mb - 0.00 in0.0 mm 0.00 in0.0 mm
01:50 AM 72.1°F22.3°C 71.8°F22.1°C 99% Calm Calm -- 29.96 in1014.6 mb - 0.00 in0.0 mm 0.00 in0.0 mm
01:45 AM 72.3°F22.4°C 72.0°F22.2°C 99% Calm Calm 3.5 mph5.6 kmh 29.96 in1014.6 mb - 0.00 in0.0 mm 0.00 in0.0 mm
01:40 AM 72.3°F22.4°C 72.0°F22.2°C 99% 1.2 mph NNW1.9 kmh NNW 3.5 mph5.6 kmh 29.96 in1014.6 mb - 0.00 in0.0 mm 0.00 in0.0 mm
01:35 AM 72.3°F22.4°C 72.0°F22.2°C 99% Calm Calm -- 29.96 in1014.6 mb - 0.00 in0.0 mm 0.00 in0.0 mm
01:30 AM 72.3°F22.4°C 72.0°F22.2°C 99% Calm Calm 2.3 mph3.7 kmh 29.96 in1014.6 mb - 0.00 in0.0 mm 0.00 in0.0 mm
01:25 AM 72.5°F22.5°C 72.2°F22.3°C 99% 1.2 mph N1.9 kmh N 3.5 mph5.6 kmh 29.96 in1014.6 mb - 0.00 in0.0 mm 0.00 in0.0 mm
01:20 AM 72.5°F22.5°C 72.2°F22.3°C 99% Calm Calm 2.3 mph3.7 kmh 29.96 in1014.6 mb - 0.00 in0.0 mm 0.00 in0.0 mm
01:15 AM 72.5°F22.5°C 72.2°F22.3°C 99% 1.2 mph 1.9 kmh -- 29.97 in1014.9 mb - 0.00 in0.0 mm 0.00 in0.0 mm
01:10 AM 72.5°F22.5°C 72.2°F22.3°C 99% Calm Calm -- 29.97 in1014.9 mb - 0.00 in0.0 mm 0.00 in0.0 mm
01:00 AM 72.5°F22.5°C 72.2°F22.3°C 99% Calm Calm -- 29.97 in1014.9 mb - 0.00 in0.0 mm 0.00 in0.0 mm
12:55 AM 72.5°F22.5°C 72.2°F22.3°C 99% 1.2 mph 1.9 kmh -- 29.97 in1014.9 mb - 0.00 in0.0 mm 0.00 in0.0 mm
12:50 AM 72.5°F22.5°C 72.2°F22.3°C 99% Calm Calm -- 29.97 in1014.9 mb - 0.00 in0.0 mm 0.00 in0.0 mm
12:45 AM 72.5°F22.5°C 72.2°F22.3°C 99% Calm Calm -- 29.97 in1014.9 mb - 0.00 in0.0 mm 0.00 in0.0 mm
12:40 AM 72.5°F22.5°C 72.2°F22.3°C 99% Calm Calm -- 29.97 in1014.9 mb - 0.00 in0.0 mm 0.00 in0.0 mm
12:35 AM 72.5°F22.5°C 72.2°F22.3°C 99% Calm Calm 1.2 mph1.9 kmh 29.97 in1014.9 mb - 0.00 in0.0 mm 0.00 in0.0 mm
12:30 AM 72.3°F22.4°C 72.0°F22.2°C 99% Calm Calm -- 29.97 in1014.9 mb - 0.00 in0.0 mm 0.00 in0.0 mm
12:25 AM 72.3°F22.4°C 72.0°F22.2°C 99% Calm Calm -- 29.98 in1015.2 mb - 0.00 in0.0 mm 0.00 in0.0 mm
12:20 AM 72.3°F22.4°C 72.0°F22.2°C 99% Calm Calm -- 29.98 in1015.2 mb - 0.00 in0.0 mm 0.00 in0.0 mm
12:15 AM 72.3°F22.4°C 72.0°F22.2°C 99% Calm Calm -- 29.98 in1015.2 mb - 0.00 in0.0 mm 0.00 in0.0 mm
12:10 AM 72.3°F22.4°C 72.0°F22.2°C 99% Calm Calm -- 29.98 in1015.2 mb - 0.00 in0.0 mm 0.00 in0.0 mm
12:00 AM 72.3°F22.4°C 72.0°F22.2°C 99% Calm Calm -- 29.98 in1015.2 mb - 0.00 in0.0 mm 0.00 in0.0 mm